Impacts METAR Board
IDs:

KORD - Chicago/O'Hare Intl, IL, US

Updated at: 2200 UTC 19 Jun 2018
Potential Impact None Slight Moderate High
Time 19/10Z 19/11Z 19/12Z 19/13Z 19/14Z 19/15Z 19/16Z 19/17Z 19/18Z 19/19Z 19/20Z 19/21Z 19/22Z
Temp64 63 64 65 68 68 74 78 81 80 78 73 71
Dewpt62 61 61 62 63 64 66 68 69 69 67 65 64
Altim29.98 29.99 29.99 29.98 29.98 29.99 29.97 29.96 29.93 29.90 29.89 29.91 29.90
VIS10 5 0.5 0.5 7 6 10 10 10 10 10 10 10
CIG4 4 3 3 7 7 95 250 37 25 250 250 250
CoverOVCOVCOVCOVCOVCOVCBKNBKNBKNBKNBKNBKNOVC
FltCatLIFRLIFRLIFRLIFRIFRIFRVFRVFRVFRMVFRVFRVFRVFR
WX--BRBRBR--BR--------------
WDir3040901204035050606020203020
WSpd4 8 6 7 5 16 6 5 4 8 12 10 10
WGst-- -- -- -- -- -- -- -- -- -- -- -- --
Raw hourly METARs
KORD 190951Z 03004KT 10SM OVC004 18/17 A2998 RMK AO2 RAE30 SLP145 P0000 T01780167 $
KORD 191051Z 04008KT 5SM BR OVC004 17/16 A2999 RMK AO2 SLP152 T01720161 $
KORD 191151Z 09006KT 1/2SM R10L/P6000FT BR OVC003 18/16 A2999 RMK AO2 SFC VIS 3 SLP152 60004 70038 T01780161 10189 20172 50003 $
KORD 191251Z 12007KT 1/2SM R10L/P6000FT BR OVC003 18/17 A2998 RMK AO2 SFC VIS 4 SLP148 T01830167
KORD 191351Z 04005KT 7SM OVC007 20/17 A2998 RMK AO2 RAB25E34 SLP149 P0000 T02000172
KORD 191503Z 35016KT 6SM BR BKN007 OVC038 20/18 A2999 RMK AO2 LTG DSNT N T02000178
KORD 191551Z 05006KT 10SM FEW007 SCT037 BKN095 23/19 A2997 RMK AO2 SLP143 T02330189 $
KORD 191651Z 06005KT 10SM FEW016 SCT100 BKN250 26/20 A2996 RMK AO2 SLP139 T02560200
KORD 191751Z 06004KT 10SM SCT022 BKN037 BKN250 27/21 A2993 RMK AO2 SLP129 60000 T02720206 10272 20178 58016 $
KORD 191851Z 02008KT 10SM BKN025 BKN075 27/21 A2990 RMK AO2 SLP121 T02670206 $
KORD 191951Z 02012KT 10SM FEW026 SCT075 SCT095 BKN250 26/19 A2989 RMK AO2 SLP117 T02560194 $
KORD 192051Z 03010KT 10SM SCT080 BKN250 23/18 A2991 RMK AO2 LTG DSNT S SLP125 T02280183 55005 $
KORD 192151Z 02010KT 10SM SCT075 OVC250 22/18 A2990 RMK AO2 LTG DSNT S SLP121 T02170178 $



Page loaded:  22:06 UTC  |   03:06 PM Pacific  |   04:06 PM Mountain  |   05:06 PM Central  |   06:06 PM Eastern

 

ADVISORIES

FORECASTS

FORECASTS

OBSERVATIONS

USER TOOLS

ABOUT US